createdAt,value
2024-03-05T00:01:26.468Z,99651.59
2024-03-05T00:06:31.909Z,99638.13
2024-03-05T00:11:35.801Z,99632.78
2024-03-05T00:16:39.894Z,99625.69
2024-03-05T00:21:45.407Z,99623.63
2024-03-05T00:26:49.285Z,99614.63
2024-03-05T00:31:53.587Z,99615.19
2024-03-05T00:36:59.253Z,99616.06
2024-03-05T00:42:05.218Z,99611.56
2024-03-05T00:47:09.116Z,99618.13
2024-03-05T00:52:15.256Z,99608.50
2024-03-05T00:57:19.152Z,99613.91
2024-03-05T01:02:24.169Z,99606.41
2024-03-05T01:07:29.745Z,99617.88
2024-03-05T01:12:33.680Z,99614.09
2024-03-05T01:17:37.874Z,99626.66
2024-03-05T01:22:43.556Z,99627.28
2024-03-05T01:27:47.550Z,99631.25
2024-03-05T01:32:53.063Z,99626.00
2024-03-05T01:37:58.443Z,99628.53
2024-03-05T01:43:02.381Z,99632.94
2024-03-05T01:48:07.367Z,99629.66
2024-03-05T01:53:16.904Z,99632.28
2024-03-05T01:58:21.226Z,99630.63
2024-03-05T02:03:25.335Z,99635.63
2024-03-05T02:08:31.113Z,99625.75
2024-03-05T02:13:35.724Z,99634.03
2024-03-05T02:18:39.583Z,99633.19
2024-03-05T02:23:44.837Z,99640.72
2024-03-05T02:28:50.361Z,99640.00
2024-03-05T02:33:55.478Z,99640.81
2024-03-05T02:39:00.748Z,99646.19
2024-03-05T02:44:05.599Z,99635.75
2024-03-05T02:49:10.430Z,99650.06
2024-03-05T02:54:15.678Z,99645.88
2024-03-05T02:59:20.162Z,99654.44
2024-03-05T03:04:24.291Z,99645.50
2024-03-05T03:09:30.260Z,99645.84
2024-03-05T03:14:34.510Z,99654.50
2024-03-05T03:19:39.121Z,99655.28
2024-03-05T03:24:44.831Z,99658.09
2024-03-05T03:29:48.952Z,99651.50
2024-03-05T03:34:53.609Z,99649.31
2024-03-05T03:39:58.881Z,99653.94
2024-03-05T03:45:02.835Z,99652.25
2024-03-05T03:50:09.053Z,99663.56
2024-03-05T03:55:14.811Z,99672.31
2024-03-05T04:00:20.423Z,99666.00
2024-03-05T04:05:26.131Z,99665.50
2024-03-05T04:10:31.519Z,99668.06
2024-03-05T04:15:35.446Z,99663.56
2024-03-05T04:20:39.295Z,99665.63
2024-03-05T04:25:45.344Z,99680.31
2024-03-05T04:30:50.200Z,99671.22
2024-03-05T04:35:54.317Z,99678.22
2024-03-05T04:40:59.562Z,99677.94
2024-03-05T04:46:03.729Z,99685.00
2024-03-05T04:51:11.195Z,99684.94
2024-03-05T04:56:16.656Z,99683.31
2024-03-05T05:01:20.628Z,99694.88
2024-03-05T05:06:24.536Z,99678.38
2024-03-05T05:11:30.326Z,99713.09
2024-03-05T05:16:34.483Z,99721.19
2024-03-05T05:21:38.628Z,99723.34
2024-03-05T05:26:47.949Z,99722.84
2024-03-05T05:31:51.919Z,99728.25
2024-03-05T05:36:56.159Z,99726.91
2024-03-05T05:42:01.733Z,99723.59
2024-03-05T05:47:06.423Z,99736.59
2024-03-05T05:52:10.702Z,99734.69
2024-03-05T05:57:16.153Z,99732.03
2024-03-05T06:02:21.533Z,99739.56
2024-03-05T06:07:25.919Z,99729.19
2024-03-05T06:12:32.947Z,99743.41
2024-03-05T06:17:36.941Z,99741.28
2024-03-05T06:22:41.603Z,99752.84
2024-03-05T06:28:04.080Z,99748.00
2024-03-05T06:33:10.529Z,99754.34
2024-03-05T06:38:14.763Z,99760.53
2024-03-05T06:43:22.822Z,99763.81
2024-03-05T06:48:28.314Z,99772.38
2024-03-05T06:53:49.855Z,99769.00
2024-03-05T06:58:54.838Z,99771.75
2024-03-05T07:04:00.589Z,99780.94
2024-03-05T07:09:05.162Z,99799.66
2024-03-05T07:14:09.589Z,99796.81
2024-03-05T07:19:15.295Z,99800.34
2024-03-05T07:24:19.291Z,99796.41
2024-03-05T07:29:23.204Z,99804.19
2024-03-05T07:34:28.582Z,99791.63
2024-03-05T07:39:33.075Z,99794.66
2024-03-05T07:44:39.015Z,99800.31
2024-03-05T07:49:44.301Z,99806.84
2024-03-05T07:54:48.539Z,99805.72
2024-03-05T08:00:15.648Z,99796.41
2024-03-05T08:05:22.713Z,99811.09
2024-03-05T08:10:27.332Z,99800.72
2024-03-05T08:15:31.490Z,99804.97
2024-03-05T08:20:36.941Z,99803.41
2024-03-05T08:25:58.481Z,99812.44
2024-03-05T08:31:02.486Z,99807.19
2024-03-05T08:36:10.078Z,99800.78
2024-03-05T08:41:13.973Z,99795.69
2024-03-05T08:46:17.977Z,99805.06
2024-03-05T08:51:23.437Z,99810.03
2024-03-05T08:56:27.345Z,99808.66
2024-03-05T09:01:31.315Z,99818.44
2024-03-05T09:06:37.061Z,99819.69
2024-03-05T09:11:41.065Z,99830.00
2024-03-05T09:16:45.350Z,99832.00
2024-03-05T09:21:52.124Z,99826.69
2024-03-05T09:26:56.041Z,99839.63
2024-03-05T09:31:59.944Z,99835.91
2024-03-05T09:37:05.382Z,99836.88
2024-03-05T09:42:12.049Z,99828.25
2024-03-05T09:47:17.735Z,99846.94
2024-03-05T09:52:23.158Z,99839.44
2024-03-05T09:57:30.382Z,99842.91
2024-03-05T10:02:35.057Z,99839.25
2024-03-05T10:07:40.770Z,99843.41
2024-03-05T10:12:45.069Z,99839.31
2024-03-05T10:17:51.681Z,99840.56
2024-03-05T10:22:59.924Z,99861.03
2024-03-05T10:28:05.627Z,99853.31
2024-03-05T10:33:11.708Z,99846.78
2024-03-05T10:38:19.500Z,99843.53
2024-03-05T10:43:23.716Z,99860.63
2024-03-05T10:48:28.854Z,99856.09
2024-03-05T10:53:34.852Z,99843.78
2024-03-05T10:58:56.716Z,99862.28
2024-03-05T11:04:03.060Z,99861.75
2024-03-05T11:09:09.601Z,99860.84
2024-03-05T11:14:15.379Z,99861.72
2024-03-05T11:19:19.726Z,99860.16
2024-03-05T11:24:26.276Z,99870.81
2024-03-05T11:29:38.784Z,99873.19
2024-03-05T11:34:49.483Z,99871.66
2024-03-05T11:39:54.902Z,99878.38
2024-03-05T11:44:59.066Z,99877.91
2024-03-05T11:50:06.688Z,99881.03
2024-03-05T11:55:27.688Z,99883.97
2024-03-05T12:00:31.605Z,99894.50
2024-03-05T12:05:35.734Z,99897.28
2024-03-05T12:10:42.381Z,99893.63
2024-03-05T12:15:46.853Z,99897.56
2024-03-05T12:20:50.836Z,99898.38
2024-03-05T12:25:56.145Z,99904.22
2024-03-05T12:31:00.268Z,99910.44
2024-03-05T12:36:04.267Z,99909.72
2024-03-05T12:41:11.224Z,99911.06
2024-03-05T12:46:20.782Z,99932.69
2024-03-05T12:51:24.968Z,99914.13
2024-03-05T12:56:30.484Z,99940.53
2024-03-05T13:01:34.463Z,99945.06
2024-03-05T13:06:38.450Z,99930.59
2024-03-05T13:11:44.423Z,99933.69
2024-03-05T13:16:48.639Z,99925.41
2024-03-05T13:21:52.945Z,99930.03
2024-03-05T13:26:58.985Z,99944.00
2024-03-05T13:32:03.024Z,99945.31
2024-03-05T13:37:07.005Z,99963.28
2024-03-05T13:42:12.688Z,99955.31
2024-03-05T13:47:18.731Z,99950.78
2024-03-05T13:52:24.159Z,99961.50
2024-03-05T13:57:30.324Z,99962.97
2024-03-05T14:02:34.438Z,99970.34
2024-03-05T14:07:38.632Z,99969.75
2024-03-05T14:12:44.137Z,99973.28
2024-03-05T14:17:48.453Z,99973.53
2024-03-05T14:22:52.531Z,99971.88
2024-03-05T14:27:57.889Z,99976.50
2024-03-05T14:33:56.191Z,99984.47
2024-03-05T14:39:04.588Z,99993.16
2024-03-05T14:44:12.445Z,100001.59
2024-03-05T14:49:16.794Z,100005.59
2024-03-05T14:54:20.732Z,100019.53
2024-03-05T14:59:26.534Z,100025.16
2024-03-05T15:04:30.722Z,100022.75
2024-03-05T15:09:37.162Z,100021.78
2024-03-05T15:14:44.359Z,100025.41
2024-03-05T15:19:51.156Z,100041.25
2024-03-05T15:24:55.007Z,100028.56
2024-03-05T15:30:00.389Z,100050.72
2024-03-05T15:35:04.986Z,100050.97
2024-03-05T15:40:16.865Z,100048.72
2024-03-05T15:45:23.017Z,100070.00
2024-03-05T15:50:31.512Z,100065.25
2024-03-05T15:55:40.507Z,100070.84
2024-03-05T16:00:49.674Z,100080.13
2024-03-05T16:06:00.782Z,100082.22
2024-03-05T16:11:10.780Z,100085.25
2024-03-05T16:16:17.169Z,100090.19
2024-03-05T16:21:40.659Z,100089.41
2024-03-05T16:26:46.205Z,100099.00
2024-03-05T16:31:51.548Z,100107.38
2024-03-05T16:36:55.465Z,100098.22
2024-03-05T16:41:59.305Z,100107.72
2024-03-05T16:47:04.878Z,100108.72
2024-03-05T16:52:09.131Z,100101.56
2024-03-05T16:57:13.182Z,100112.66
2024-03-05T17:02:24.089Z,100114.00
2024-03-05T17:07:32.751Z,100118.59
2024-03-05T17:12:39.027Z,100121.41
2024-03-05T17:17:56.034Z,100123.00
2024-03-05T17:23:04.697Z,100116.66
2024-03-05T17:28:13.595Z,100127.91
2024-03-05T17:33:19.449Z,100127.09
2024-03-05T17:38:23.419Z,100132.03
2024-03-05T17:43:29.742Z,100133.28
2024-03-05T17:48:35.913Z,100130.66
2024-03-05T17:53:40.999Z,100138.22
2024-03-05T17:58:45.757Z,100134.22
2024-03-05T18:03:51.202Z,100137.47
2024-03-05T18:08:55.859Z,100143.31
2024-03-05T18:14:00.857Z,100138.28
2024-03-05T18:19:09.024Z,100130.13
2024-03-05T18:24:13.774Z,100131.78
2024-03-05T18:29:18.090Z,100142.88
2024-03-05T18:34:25.488Z,100149.28
2024-03-05T18:39:29.480Z,100148.03
2024-03-05T18:44:33.378Z,100146.63
2024-03-05T18:49:43.626Z,100146.38
2024-03-05T18:54:47.766Z,100152.34
2024-03-05T18:59:51.993Z,100144.53
2024-03-05T19:05:06.809Z,100140.50
2024-03-05T19:10:14.155Z,100148.94
2024-03-05T19:15:18.942Z,100155.25
2024-03-05T19:20:24.701Z,100156.16
2024-03-05T19:25:29.765Z,100148.16
2024-03-05T19:30:39.628Z,100157.97
2024-03-05T19:35:45.501Z,100155.03
2024-03-05T19:40:50.226Z,100158.75
2024-03-05T19:45:54.291Z,100157.06
2024-03-05T19:50:59.549Z,100163.69
2024-03-05T19:56:05.344Z,100156.91
2024-03-05T20:01:09.740Z,100163.84
2024-03-05T20:06:15.130Z,100160.91
2024-03-05T20:11:19.590Z,100162.09
2024-03-05T20:16:23.544Z,100158.56
2024-03-05T20:21:28.924Z,100163.00
2024-03-05T20:26:33.019Z,100163.91
2024-03-05T20:31:37.047Z,100165.22
2024-03-05T20:36:42.523Z,100158.16
2024-03-05T20:41:47.484Z,100172.75
2024-03-05T20:46:51.371Z,100179.28
2024-03-05T20:51:58.369Z,100174.19
2024-03-05T20:57:02.555Z,100177.72
2024-03-05T21:02:11.151Z,100178.34
2024-03-05T21:07:16.820Z,100170.50
2024-03-05T21:12:20.665Z,100182.69
2024-03-05T21:17:26.250Z,100187.94
2024-03-05T21:22:31.619Z,100186.19
2024-03-05T21:27:36.418Z,100187.25
2024-03-05T21:32:40.759Z,100188.06
2024-03-05T21:37:47.696Z,100196.47
2024-03-05T21:42:51.634Z,100189.31
2024-03-05T21:47:55.569Z,100198.91
2024-03-05T21:53:00.908Z,100197.84
2024-03-05T21:58:05.145Z,100203.59
2024-03-05T22:03:09.586Z,100203.69
2024-03-05T22:08:15.002Z,100207.47
2024-03-05T22:13:19.258Z,100213.84
2024-03-05T22:18:23.157Z,100202.94
2024-03-05T22:23:28.489Z,100209.09
2024-03-05T22:28:32.693Z,100207.66
2024-03-05T22:33:36.606Z,100201.38
2024-03-05T22:38:41.882Z,100194.75
2024-03-05T22:43:46.498Z,100201.81
2024-03-05T22:48:50.502Z,100206.63
2024-03-05T22:53:55.741Z,100212.44
2024-03-05T22:58:59.918Z,100219.94
2024-03-05T23:04:03.866Z,100223.09
2024-03-05T23:09:13.698Z,100227.84
2024-03-05T23:14:18.269Z,100219.66
2024-03-05T23:19:22.304Z,100232.66
2024-03-05T23:24:27.581Z,100225.81
2024-03-05T23:29:31.504Z,100224.38
2024-03-05T23:34:35.902Z,100223.00
2024-03-05T23:39:41.735Z,100226.63
2024-03-05T23:44:45.926Z,100213.59
2024-03-05T23:49:50.041Z,100219.97
2024-03-05T23:54:58.134Z,100222.31
